sensor_id;sensor_type;location;lat;lon;timestamp;pressure;altitude;pressure_sealevel;temperature;humidity
21111;BME280;10713;51.912;4.494;2022-12-20T00:00:47;101205.97;;;11.13;100.00
21111;BME280;10713;51.912;4.494;2022-12-20T00:03:12;101199.00;;;11.10;100.00
21111;BME280;10713;51.912;4.494;2022-12-20T00:05:40;101188.34;;;11.13;100.00
21111;BME280;10713;51.912;4.494;2022-12-20T00:08:07;101191.50;;;11.23;100.00
21111;BME280;10713;51.912;4.494;2022-12-20T00:10:36;101192.38;;;11.23;100.00
21111;BME280;10713;51.912;4.494;2022-12-20T00:13:02;101197.66;;;11.23;100.00
21111;BME280;10713;51.912;4.494;2022-12-20T00:15:28;101196.09;;;11.18;100.00
21111;BME280;10713;51.912;4.494;2022-12-20T00:17:55;101207.50;;;11.18;100.00
21111;BME280;10713;51.912;4.494;2022-12-20T00:20:20;101200.41;;;11.20;100.00
21111;BME280;10713;51.912;4.494;2022-12-20T00:22:46;101212.56;;;11.24;100.00
21111;BME280;10713;51.912;4.494;2022-12-20T00:25:11;101208.91;;;11.28;100.00
21111;BME280;10713;51.912;4.494;2022-12-20T00:27:36;101216.63;;;11.35;100.00
21111;BME280;10713;51.912;4.494;2022-12-20T00:30:02;101201.69;;;11.34;100.00
21111;BME280;10713;51.912;4.494;2022-12-20T00:32:28;101212.50;;;11.27;100.00
21111;BME280;10713;51.912;4.494;2022-12-20T00:34:54;101209.84;;;11.27;100.00
21111;BME280;10713;51.912;4.494;2022-12-20T00:37:19;101192.25;;;11.26;100.00
21111;BME280;10713;51.912;4.494;2022-12-20T00:39:44;101186.22;;;11.23;100.00
21111;BME280;10713;51.912;4.494;2022-12-20T00:42:10;101190.66;;;11.22;100.00
21111;BME280;10713;51.912;4.494;2022-12-20T00:44:35;101185.47;;;11.19;100.00
21111;BME280;10713;51.912;4.494;2022-12-20T00:47:00;101181.38;;;11.11;100.00
21111;BME280;10713;51.912;4.494;2022-12-20T00:49:26;101187.56;;;11.10;100.00
21111;BME280;10713;51.912;4.494;2022-12-20T00:51:51;101184.31;;;11.03;100.00
21111;BME280;10713;51.912;4.494;2022-12-20T00:54:16;101174.44;;;11.08;100.00
21111;BME280;10713;51.912;4.494;2022-12-20T00:56:42;101171.69;;;11.11;100.00
21111;BME280;10713;51.912;4.494;2022-12-20T00:59:07;101156.09;;;11.03;100.00
21111;BME280;10713;51.912;4.494;2022-12-20T01:01:32;101146.63;;;10.98;100.00
21111;BME280;10713;51.912;4.494;2022-12-20T01:04:01;101142.38;;;10.94;100.00
21111;BME280;10713;51.912;4.494;2022-12-20T01:06:27;101144.28;;;11.37;100.00
21111;BME280;10713;51.912;4.494;2022-12-20T01:08:53;101154.38;;;11.49;100.00
21111;BME280;10713;51.912;4.494;2022-12-20T01:11:25;101163.38;;;10.97;100.00
21111;BME280;10713;51.912;4.494;2022-12-20T01:14:04;101172.84;;;10.79;100.00
21111;BME280;10713;51.912;4.494;2022-12-20T01:16:42;101162.28;;;10.79;100.00
21111;BME280;10713;51.912;4.494;2022-12-20T01:19:11;101163.88;;;10.83;100.00
21111;BME280;10713;51.912;4.494;2022-12-20T01:21:38;101151.59;;;10.82;100.00
21111;BME280;10713;51.912;4.494;2022-12-20T01:24:12;101162.31;;;10.77;100.00
21111;BME280;10713;51.912;4.494;2022-12-20T01:26:38;101157.94;;;10.76;100.00
21111;BME280;10713;51.912;4.494;2022-12-20T01:29:04;101153.78;;;10.69;100.00
21111;BME280;10713;51.912;4.494;2022-12-20T01:31:29;101154.66;;;10.70;100.00
21111;BME280;10713;51.912;4.494;2022-12-20T01:33:55;101154.59;;;10.71;100.00
21111;BME280;10713;51.912;4.494;2022-12-20T01:36:25;101143.59;;;10.58;100.00
21111;BME280;10713;51.912;4.494;2022-12-20T01:38:55;101140.06;;;10.59;100.00
21111;BME280;10713;51.912;4.494;2022-12-20T01:41:21;101151.81;;;10.49;100.00
21111;BME280;10713;51.912;4.494;2022-12-20T01:43:55;101132.38;;;10.52;100.00
21111;BME280;10713;51.912;4.494;2022-12-20T01:46:23;101127.53;;;10.40;100.00
21111;BME280;10713;51.912;4.494;2022-12-20T01:48:59;101139.94;;;10.63;100.00
21111;BME280;10713;51.912;4.494;2022-12-20T01:51:28;101140.41;;;10.49;100.00
21111;BME280;10713;51.912;4.494;2022-12-20T01:54:04;101127.16;;;10.75;100.00
21111;BME280;10713;51.912;4.494;2022-12-20T01:56:31;101127.75;;;10.83;100.00
21111;BME280;10713;51.912;4.494;2022-12-20T01:58:56;101137.63;;;10.78;100.00
21111;BME280;10713;51.912;4.494;2022-12-20T02:01:23;101126.16;;;10.79;100.00
21111;BME280;10713;51.912;4.494;2022-12-20T02:03:50;101149.19;;;10.76;100.00
21111;BME280;10713;51.912;4.494;2022-12-20T02:06:18;101137.47;;;10.83;100.00
21111;BME280;10713;51.912;4.494;2022-12-20T02:08:45;101122.06;;;10.71;100.00
21111;BME280;10713;51.912;4.494;2022-12-20T02:14:25;101144.53;;;10.82;100.00
21111;BME280;10713;51.912;4.494;2022-12-20T02:17:10;101148.06;;;10.81;100.00
21111;BME280;10713;51.912;4.494;2022-12-20T02:27:54;101127.72;;;10.85;100.00
21111;BME280;10713;51.912;4.494;2022-12-20T02:30:27;101119.50;;;10.93;100.00
21111;BME280;10713;51.912;4.494;2022-12-20T02:32:59;101106.50;;;11.12;100.00
21111;BME280;10713;51.912;4.494;2022-12-20T02:35:30;101127.50;;;10.66;100.00
21111;BME280;10713;51.912;4.494;2022-12-20T02:37:59;101110.19;;;10.32;100.00
21111;BME280;10713;51.912;4.494;2022-12-20T02:40:39;101121.75;;;10.28;100.00
21111;BME280;10713;51.912;4.494;2022-12-20T02:43:07;101123.47;;;10.29;100.00
21111;BME280;10713;51.912;4.494;2022-12-20T02:45:54;101117.22;;;10.32;100.00
21111;BME280;10713;51.912;4.494;2022-12-20T02:48:20;101098.06;;;10.27;100.00
21111;BME280;10713;51.912;4.494;2022-12-20T02:50:49;101112.78;;;10.34;100.00
21111;BME280;10713;51.912;4.494;2022-12-20T02:53:17;101114.59;;;10.32;100.00
21111;BME280;10713;51.912;4.494;2022-12-20T02:58:22;101100.34;;;10.37;100.00
21111;BME280;10713;51.912;4.494;2022-12-20T03:00:52;101098.34;;;10.44;100.00
21111;BME280;10713;51.912;4.494;2022-12-20T03:03:20;101096.50;;;10.46;100.00
21111;BME280;10713;51.912;4.494;2022-12-20T03:05:50;101104.97;;;10.81;100.00
21111;BME280;10713;51.912;4.494;2022-12-20T03:08:16;101100.38;;;10.86;100.00
21111;BME280;10713;51.912;4.494;2022-12-20T03:10:42;101091.22;;;10.96;100.00
21111;BME280;10713;51.912;4.494;2022-12-20T03:13:08;101092.81;;;11.00;100.00
21111;BME280;10713;51.912;4.494;2022-12-20T03:15:34;101078.63;;;11.03;100.00
21111;BME280;10713;51.912;4.494;2022-12-20T03:17:59;101085.38;;;11.10;100.00
21111;BME280;10713;51.912;4.494;2022-12-20T03:20:24;101082.47;;;11.18;100.00
21111;BME280;10713;51.912;4.494;2022-12-20T03:22:50;101085.00;;;11.21;100.00
21111;BME280;10713;51.912;4.494;2022-12-20T03:25:15;101078.31;;;10.87;100.00
21111;BME280;10713;51.912;4.494;2022-12-20T03:27:41;101091.53;;;10.87;100.00
21111;BME280;10713;51.912;4.494;2022-12-20T03:30:07;101082.72;;;10.88;100.00
21111;BME280;10713;51.912;4.494;2022-12-20T03:32:32;101084.25;;;10.94;100.00
21111;BME280;10713;51.912;4.494;2022-12-20T03:34:57;101079.75;;;10.96;100.00
21111;BME280;10713;51.912;4.494;2022-12-20T03:37:23;101077.81;;;11.01;100.00
21111;BME280;10713;51.912;4.494;2022-12-20T03:39:48;101069.84;;;11.93;100.00
21111;BME280;10713;51.912;4.494;2022-12-20T03:42:14;101063.66;;;11.93;100.00
21111;BME280;10713;51.912;4.494;2022-12-20T03:44:39;101069.88;;;11.24;100.00
21111;BME280;10713;51.912;4.494;2022-12-20T03:47:04;101089.78;;;11.11;100.00
21111;BME280;10713;51.912;4.494;2022-12-20T03:49:30;101101.31;;;11.09;100.00
21111;BME280;10713;51.912;4.494;2022-12-20T03:51:55;101087.25;;;11.08;100.00
21111;BME280;10713;51.912;4.494;2022-12-20T03:54:21;101088.81;;;11.14;100.00
21111;BME280;10713;51.912;4.494;2022-12-20T03:56:46;101092.22;;;11.16;100.00
21111;BME280;10713;51.912;4.494;2022-12-20T03:59:11;101086.72;;;11.22;100.00
21111;BME280;10713;51.912;4.494;2022-12-20T04:01:37;101083.09;;;11.24;100.00
21111;BME280;10713;51.912;4.494;2022-12-20T04:04:03;101091.78;;;11.28;100.00
21111;BME280;10713;51.912;4.494;2022-12-20T04:06:29;101079.59;;;11.24;100.00
21111;BME280;10713;51.912;4.494;2022-12-20T04:08:55;101085.84;;;11.21;100.00
21111;BME280;10713;51.912;4.494;2022-12-20T04:11:20;101076.28;;;11.19;100.00
21111;BME280;10713;51.912;4.494;2022-12-20T04:13:48;101070.31;;;11.14;100.00
21111;BME280;10713;51.912;4.494;2022-12-20T04:16:15;101067.00;;;11.07;100.00
21111;BME280;10713;51.912;4.494;2022-12-20T04:18:42;101076.72;;;11.07;100.00
21111;BME280;10713;51.912;4.494;2022-12-20T04:21:08;101091.03;;;11.01;100.00
21111;BME280;10713;51.912;4.494;2022-12-20T04:23:35;101088.28;;;11.04;100.00
21111;BME280;10713;51.912;4.494;2022-12-20T04:26:02;101085.94;;;10.96;100.00
21111;BME280;10713;51.912;4.494;2022-12-20T04:28:28;101085.13;;;10.94;100.00
21111;BME280;10713;51.912;4.494;2022-12-20T04:30:54;101079.88;;;10.93;100.00
21111;BME280;10713;51.912;4.494;2022-12-20T04:33:19;101075.53;;;10.92;100.00
21111;BME280;10713;51.912;4.494;2022-12-20T04:35:44;101068.47;;;10.92;100.00
21111;BME280;10713;51.912;4.494;2022-12-20T04:38:09;101059.63;;;10.93;100.00
21111;BME280;10713;51.912;4.494;2022-12-20T04:40:35;101062.31;;;10.92;100.00
21111;BME280;10713;51.912;4.494;2022-12-20T04:43:00;101055.44;;;10.88;100.00
21111;BME280;10713;51.912;4.494;2022-12-20T04:45:25;101052.69;;;10.91;100.00
21111;BME280;10713;51.912;4.494;2022-12-20T04:47:51;101054.50;;;10.89;100.00
21111;BME280;10713;51.912;4.494;2022-12-20T04:50:16;101046.69;;;10.86;100.00
21111;BME280;10713;51.912;4.494;2022-12-20T04:52:43;101054.34;;;10.93;100.00
21111;BME280;10713;51.912;4.494;2022-12-20T04:55:41;101042.13;;;10.91;100.00
21111;BME280;10713;51.912;4.494;2022-12-20T04:58:06;101033.25;;;11.15;100.00
21111;BME280;10713;51.912;4.494;2022-12-20T05:00:32;101024.13;;;11.00;100.00
21111;BME280;10713;51.912;4.494;2022-12-20T05:02:58;101015.31;;;11.23;100.00
21111;BME280;10713;51.912;4.494;2022-12-20T05:05:24;101009.91;;;11.26;100.00
21111;BME280;10713;51.912;4.494;2022-12-20T05:07:50;101004.06;;;11.18;100.00
21111;BME280;10713;51.912;4.494;2022-12-20T05:10:15;100996.03;;;12.28;100.00
21111;BME280;10713;51.912;4.494;2022-12-20T05:12:41;100971.41;;;12.26;100.00
21111;BME280;10713;51.912;4.494;2022-12-20T05:15:07;100976.41;;;12.32;100.00
21111;BME280;10713;51.912;4.494;2022-12-20T05:17:33;100977.41;;;12.30;100.00
21111;BME280;10713;51.912;4.494;2022-12-20T05:19:58;100979.91;;;12.33;100.00
21111;BME280;10713;51.912;4.494;2022-12-20T05:22:24;100965.16;;;12.27;100.00
21111;BME280;10713;51.912;4.494;2022-12-20T05:25:09;100974.47;;;12.36;100.00
21111;BME280;10713;51.912;4.494;2022-12-20T05:27:53;100990.88;;;12.25;100.00
21111;BME280;10713;51.912;4.494;2022-12-20T05:30:19;100983.31;;;12.36;100.00
21111;BME280;10713;51.912;4.494;2022-12-20T05:32:44;100967.91;;;12.45;100.00
21111;BME280;10713;51.912;4.494;2022-12-20T05:35:09;100972.78;;;12.35;100.00
21111;BME280;10713;51.912;4.494;2022-12-20T05:37:35;100986.59;;;12.42;100.00
21111;BME280;10713;51.912;4.494;2022-12-20T05:40:00;100971.44;;;12.45;100.00
21111;BME280;10713;51.912;4.494;2022-12-20T05:42:26;100973.22;;;12.45;100.00
21111;BME280;10713;51.912;4.494;2022-12-20T05:44:51;100969.84;;;12.41;100.00
21111;BME280;10713;51.912;4.494;2022-12-20T05:47:16;100960.00;;;12.24;100.00
21111;BME280;10713;51.912;4.494;2022-12-20T05:49:42;100956.66;;;12.21;100.00
21111;BME280;10713;51.912;4.494;2022-12-20T05:52:07;100969.28;;;12.14;100.00
21111;BME280;10713;51.912;4.494;2022-12-20T05:54:32;100965.38;;;12.23;100.00
21111;BME280;10713;51.912;4.494;2022-12-20T05:56:57;100967.09;;;12.24;100.00
21111;BME280;10713;51.912;4.494;2022-12-20T05:59:23;100965.38;;;12.23;100.00
21111;BME280;10713;51.912;4.494;2022-12-20T06:01:49;100972.47;;;12.22;100.00
21111;BME280;10713;51.912;4.494;2022-12-20T06:04:14;100967.16;;;12.43;100.00
21111;BME280;10713;51.912;4.494;2022-12-20T06:06:40;100960.00;;;12.63;100.00
21111;BME280;10713;51.912;4.494;2022-12-20T06:09:05;100950.28;;;12.64;100.00
21111;BME280;10713;51.912;4.494;2022-12-20T06:11:30;100951.13;;;12.46;100.00
21111;BME280;10713;51.912;4.494;2022-12-20T06:13:56;100956.56;;;12.43;100.00
21111;BME280;10713;51.912;4.494;2022-12-20T06:16:21;100952.03;;;12.45;100.00
21111;BME280;10713;51.912;4.494;2022-12-20T06:18:47;100960.72;;;12.48;100.00
21111;BME280;10713;51.912;4.494;2022-12-20T06:21:13;100947.34;;;12.51;100.00
21111;BME280;10713;51.912;4.494;2022-12-20T06:23:38;100949.72;;;11.76;100.00
21111;BME280;10713;51.912;4.494;2022-12-20T06:26:04;100948.88;;;11.97;100.00
21111;BME280;10713;51.912;4.494;2022-12-20T06:28:33;100951.25;;;12.61;100.00
21111;BME280;10713;51.912;4.494;2022-12-20T06:30:58;100957.94;;;12.70;100.00
21111;BME280;10713;51.912;4.494;2022-12-20T06:33:24;100970.94;;;11.54;100.00
21111;BME280;10713;51.912;4.494;2022-12-20T06:35:49;100983.22;;;11.33;100.00
21111;BME280;10713;51.912;4.494;2022-12-20T06:38:15;100977.34;;;11.26;100.00
21111;BME280;10713;51.912;4.494;2022-12-20T06:40:40;100971.81;;;11.32;100.00
21111;BME280;10713;51.912;4.494;2022-12-20T06:43:06;100978.84;;;11.33;100.00
21111;BME280;10713;51.912;4.494;2022-12-20T06:45:31;100965.63;;;11.33;100.00
21111;BME280;10713;51.912;4.494;2022-12-20T06:47:57;100970.81;;;11.35;100.00
21111;BME280;10713;51.912;4.494;2022-12-20T06:50:23;100963.88;;;11.32;100.00
21111;BME280;10713;51.912;4.494;2022-12-20T06:52:48;100975.94;;;11.39;100.00
21111;BME280;10713;51.912;4.494;2022-12-20T06:55:13;100979.44;;;11.40;100.00
21111;BME280;10713;51.912;4.494;2022-12-20T06:57:39;100981.16;;;11.41;100.00
21111;BME280;10713;51.912;4.494;2022-12-20T07:00:05;100984.59;;;11.43;100.00
21111;BME280;10713;51.912;4.494;2022-12-20T07:02:32;100982.81;;;11.43;100.00
21111;BME280;10713;51.912;4.494;2022-12-20T07:04:57;100988.03;;;11.45;100.00
21111;BME280;10713;51.912;4.494;2022-12-20T07:07:23;100996.03;;;11.43;100.00
21111;BME280;10713;51.912;4.494;2022-12-20T07:09:48;100984.72;;;11.40;100.00
21111;BME280;10713;51.912;4.494;2022-12-20T07:12:13;100980.88;;;11.47;100.00
21111;BME280;10713;51.912;4.494;2022-12-20T07:14:39;100978.38;;;11.44;100.00
21111;BME280;10713;51.912;4.494;2022-12-20T07:17:04;100973.16;;;11.42;100.00
21111;BME280;10713;51.912;4.494;2022-12-20T07:19:30;100988.16;;;11.42;100.00
21111;BME280;10713;51.912;4.494;2022-12-20T07:21:55;100991.53;;;11.45;100.00
21111;BME280;10713;51.912;4.494;2022-12-20T07:24:21;100986.31;;;11.44;100.00
21111;BME280;10713;51.912;4.494;2022-12-20T07:26:46;100984.47;;;11.46;100.00
21111;BME280;10713;51.912;4.494;2022-12-20T07:29:12;100985.19;;;11.49;100.00
21111;BME280;10713;51.912;4.494;2022-12-20T07:31:38;100982.56;;;11.49;100.00
21111;BME280;10713;51.912;4.494;2022-12-20T07:34:03;100986.19;;;11.47;100.00
21111;BME280;10713;51.912;4.494;2022-12-20T07:36:29;100983.53;;;11.47;100.00
21111;BME280;10713;51.912;4.494;2022-12-20T07:38:54;100973.75;;;11.49;100.00
21111;BME280;10713;51.912;4.494;2022-12-20T07:41:19;100988.03;;;11.45;100.00
21111;BME280;10713;51.912;4.494;2022-12-20T07:43:45;100978.56;;;11.39;100.00
21111;BME280;10713;51.912;4.494;2022-12-20T07:46:12;100980.47;;;11.36;100.00
21111;BME280;10713;51.912;4.494;2022-12-20T07:48:38;100982.19;;;11.37;100.00
21111;BME280;10713;51.912;4.494;2022-12-20T07:51:13;100974.69;;;11.48;100.00
21111;BME280;10713;51.912;4.494;2022-12-20T07:53:44;100978.06;;;11.30;100.00
21111;BME280;10713;51.912;4.494;2022-12-20T07:56:11;100984.34;;;11.49;100.00
21111;BME280;10713;51.912;4.494;2022-12-20T07:58:39;100978.44;;;11.42;100.00
21111;BME280;10713;51.912;4.494;2022-12-20T08:01:06;100982.63;;;11.48;100.00
21111;BME280;10713;51.912;4.494;2022-12-20T08:03:40;100982.44;;;11.53;100.00
21111;BME280;10713;51.912;4.494;2022-12-20T08:06:08;100991.47;;;11.47;100.00
21111;BME280;10713;51.912;4.494;2022-12-20T08:08:40;100979.03;;;11.71;100.00
21111;BME280;10713;51.912;4.494;2022-12-20T08:11:08;100979.38;;;11.84;100.00
21111;BME280;10713;51.912;4.494;2022-12-20T08:13:35;100970.66;;;11.82;100.00
21111;BME280;10713;51.912;4.494;2022-12-20T08:16:00;100974.84;;;11.87;100.00
21111;BME280;10713;51.912;4.494;2022-12-20T08:18:26;100969.44;;;11.90;100.00
21111;BME280;10713;51.912;4.494;2022-12-20T08:20:51;100965.13;;;11.88;100.00
21111;BME280;10713;51.912;4.494;2022-12-20T08:23:16;100972.28;;;11.86;100.00
21111;BME280;10713;51.912;4.494;2022-12-20T08:25:43;100976.50;;;11.47;100.00
21111;BME280;10713;51.912;4.494;2022-12-20T08:28:09;100982.06;;;11.40;100.00
21111;BME280;10713;51.912;4.494;2022-12-20T08:30:34;100983.53;;;11.47;100.00
21111;BME280;10713;51.912;4.494;2022-12-20T08:32:59;100975.72;;;11.44;100.00
21111;BME280;10713;51.912;4.494;2022-12-20T08:35:25;100979.13;;;11.47;100.00
21111;BME280;10713;51.912;4.494;2022-12-20T08:37:51;100984.47;;;11.46;100.00
21111;BME280;10713;51.912;4.494;2022-12-20T08:40:17;100984.28;;;11.50;100.00
21111;BME280;10713;51.912;4.494;2022-12-20T08:42:43;100979.75;;;11.75;100.00
21111;BME280;10713;51.912;4.494;2022-12-20T08:45:08;100984.91;;;11.78;100.00
21111;BME280;10713;51.912;4.494;2022-12-20T08:47:34;100981.47;;;11.76;100.00
21111;BME280;10713;51.912;4.494;2022-12-20T08:49:59;100980.81;;;11.70;100.00
21111;BME280;10713;51.912;4.494;2022-12-20T08:52:27;100993.03;;;11.73;100.00
21111;BME280;10713;51.912;4.494;2022-12-20T08:54:52;100978.19;;;11.70;100.00
21111;BME280;10713;51.912;4.494;2022-12-20T08:57:18;100987.09;;;11.68;100.00
21111;BME280;10713;51.912;4.494;2022-12-20T08:59:43;100991.47;;;11.69;100.00
21111;BME280;10713;51.912;4.494;2022-12-20T09:02:08;100988.38;;;11.58;100.00
21111;BME280;10713;51.912;4.494;2022-12-20T09:04:34;101000.66;;;11.81;100.00
21111;BME280;10713;51.912;4.494;2022-12-20T09:06:59;100996.22;;;11.81;100.00
21111;BME280;10713;51.912;4.494;2022-12-20T09:09:25;101000.25;;;11.91;100.00
21111;BME280;10713;51.912;4.494;2022-12-20T09:11:50;100994.69;;;11.76;100.00
21111;BME280;10713;51.912;4.494;2022-12-20T09:14:15;101005.34;;;11.74;100.00
21111;BME280;10713;51.912;4.494;2022-12-20T09:16:42;101002.03;;;11.69;100.00
21111;BME280;10713;51.912;4.494;2022-12-20T09:19:11;100992.25;;;11.71;100.00
21111;BME280;10713;51.912;4.494;2022-12-20T09:21:37;101003.16;;;11.63;100.00
21111;BME280;10713;51.912;4.494;2022-12-20T09:24:02;100989.66;;;11.69;100.00
21111;BME280;10713;51.912;4.494;2022-12-20T09:26:28;100999.84;;;11.79;100.00
21111;BME280;10713;51.912;4.494;2022-12-20T09:28:54;101004.88;;;11.42;100.00
21111;BME280;10713;51.912;4.494;2022-12-20T09:31:22;101006.72;;;11.40;100.00
21111;BME280;10713;51.912;4.494;2022-12-20T09:33:48;100983.91;;;11.38;100.00
21111;BME280;10713;51.912;4.494;2022-12-20T09:36:16;100997.72;;;11.44;100.00
21111;BME280;10713;51.912;4.494;2022-12-20T09:38:42;100987.28;;;11.41;100.00
21111;BME280;10713;51.912;4.494;2022-12-20T09:41:18;101002.28;;;11.41;100.00
21111;BME280;10713;51.912;4.494;2022-12-20T09:43:47;101002.03;;;11.47;100.00
21111;BME280;10713;51.912;4.494;2022-12-20T09:46:13;100998.41;;;11.49;100.00
21111;BME280;10713;51.912;4.494;2022-12-20T09:48:39;100996.09;;;11.42;100.00
21111;BME280;10713;51.912;4.494;2022-12-20T09:51:27;101001.78;;;11.53;100.00
21111;BME280;10713;51.912;4.494;2022-12-20T09:54:09;100989.13;;;11.61;100.00
21111;BME280;10713;51.912;4.494;2022-12-20T09:59:34;100990.44;;;11.51;100.00
21111;BME280;10713;51.912;4.494;2022-12-20T10:02:08;101009.06;;;11.48;100.00
21111;BME280;10713;51.912;4.494;2022-12-20T10:04:35;100990.88;;;11.40;100.00
21111;BME280;10713;51.912;4.494;2022-12-20T10:12:59;100988.63;;;11.73;100.00
21111;BME280;10713;51.912;4.494;2022-12-20T10:15:37;100985.56;;;11.62;100.00
21111;BME280;10713;51.912;4.494;2022-12-20T10:20:54;100983.78;;;11.63;100.00
21111;BME280;10713;51.912;4.494;2022-12-20T10:23:39;100979.28;;;11.65;100.00
21111;BME280;10713;51.912;4.494;2022-12-20T10:26:12;100978.09;;;11.72;100.00
21111;BME280;10713;51.912;4.494;2022-12-20T10:28:38;100980.75;;;11.72;100.00
21111;BME280;10713;51.912;4.494;2022-12-20T10:31:13;100974.28;;;11.79;100.00
21111;BME280;10713;51.912;4.494;2022-12-20T10:33:39;100977.25;;;11.71;100.00
21111;BME280;10713;51.912;4.494;2022-12-20T10:38:55;100982.41;;;11.75;100.00
21111;BME280;10713;51.912;4.494;2022-12-20T10:41:26;100969.88;;;11.58;100.00
21111;BME280;10713;51.912;4.494;2022-12-20T10:44:02;100974.47;;;11.75;100.00
21111;BME280;10713;51.912;4.494;2022-12-20T10:46:55;100984.06;;;11.77;100.00
21111;BME280;10713;51.912;4.494;2022-12-20T10:51:51;100983.13;;;11.78;100.00
21111;BME280;10713;51.912;4.494;2022-12-20T10:54:40;100985.72;;;11.80;100.00
21111;BME280;10713;51.912;4.494;2022-12-20T10:57:17;100970.28;;;11.91;100.00
21111;BME280;10713;51.912;4.494;2022-12-20T11:00:05;100972.84;;;11.92;100.00
21111;BME280;10713;51.912;4.494;2022-12-20T11:02:36;100978.59;;;11.82;100.00
21111;BME280;10713;51.912;4.494;2022-12-20T11:05:17;100973.06;;;11.66;100.00
21111;BME280;10713;51.912;4.494;2022-12-20T11:07:56;100977.13;;;11.75;100.00
21111;BME280;10713;51.912;4.494;2022-12-20T11:10:24;100965.72;;;11.72;100.00
21111;BME280;10713;51.912;4.494;2022-12-20T11:12:59;100976.84;;;11.81;100.00
21111;BME280;10713;51.912;4.494;2022-12-20T11:15:30;100981.34;;;11.79;100.00
21111;BME280;10713;51.912;4.494;2022-12-20T11:18:20;100976.56;;;11.88;100.00
21111;BME280;10713;51.912;4.494;2022-12-20T11:23:40;100978.28;;;11.89;100.00
21111;BME280;10713;51.912;4.494;2022-12-20T11:37:18;100951.69;;;11.92;100.00
21111;BME280;10713;51.912;4.494;2022-12-20T11:42:27;100954.16;;;11.97;100.00
21111;BME280;10713;51.912;4.494;2022-12-20T11:51:03;100954.97;;;11.99;100.00
21111;BME280;10713;51.912;4.494;2022-12-20T11:53:34;100960.63;;;11.90;100.00
21111;BME280;10713;51.912;4.494;2022-12-20T11:56:08;100968.19;;;11.99;100.00
21111;BME280;10713;51.912;4.494;2022-12-20T11:58:46;100964.78;;;11.53;100.00
21111;BME280;10713;51.912;4.494;2022-12-20T12:01:20;100963.00;;;11.54;100.00
21111;BME280;10713;51.912;4.494;2022-12-20T12:04:13;100968.31;;;11.54;100.00
21111;BME280;10713;51.912;4.494;2022-12-20T12:06:45;100961.28;;;11.53;100.00
21111;BME280;10713;51.912;4.494;2022-12-20T12:12:02;100968.16;;;11.57;100.00
21111;BME280;10713;51.912;4.494;2022-12-20T12:14:42;100967.53;;;11.50;100.00
21111;BME280;10713;51.912;4.494;2022-12-20T12:17:19;100959.84;;;11.66;100.00
21111;BME280;10713;51.912;4.494;2022-12-20T12:19:49;100960.41;;;11.74;100.00
21111;BME280;10713;51.912;4.494;2022-12-20T12:22:24;100952.09;;;11.61;100.00
21111;BME280;10713;51.912;4.494;2022-12-20T12:24:55;100957.97;;;11.90;100.00
21111;BME280;10713;51.912;4.494;2022-12-20T12:27:25;100960.31;;;11.98;100.00
21111;BME280;10713;51.912;4.494;2022-12-20T12:29:52;100945.41;;;11.53;100.00
21111;BME280;10713;51.912;4.494;2022-12-20T12:32:24;100948.69;;;11.37;100.00
21111;BME280;10713;51.912;4.494;2022-12-20T12:41:00;100964.91;;;11.50;100.00
21111;BME280;10713;51.912;4.494;2022-12-20T12:43:47;100945.81;;;11.43;100.00
21111;BME280;10713;51.912;4.494;2022-12-20T12:46:34;100955.44;;;11.44;100.00
21111;BME280;10713;51.912;4.494;2022-12-20T12:49:04;100956.38;;;11.43;100.00
21111;BME280;10713;51.912;4.494;2022-12-20T12:51:33;100957.97;;;11.47;100.00
21111;BME280;10713;51.912;4.494;2022-12-20T12:54:21;100952.03;;;11.42;100.00
21111;BME280;10713;51.912;4.494;2022-12-20T12:56:49;100958.41;;;11.37;100.00
21111;BME280;10713;51.912;4.494;2022-12-20T13:09:57;100942.31;;;11.85;100.00
21111;BME280;10713;51.912;4.494;2022-12-20T13:15:00;100954.78;;;11.39;100.00
21111;BME280;10713;51.912;4.494;2022-12-20T13:19:54;100959.41;;;11.34;100.00
21111;BME280;10713;51.912;4.494;2022-12-20T13:22:21;100956.81;;;11.33;100.00
21111;BME280;10713;51.912;4.494;2022-12-20T13:37:54;100943.97;;;11.45;100.00
21111;BME280;10713;51.912;4.494;2022-12-20T13:40:29;100946.72;;;11.42;100.00
21111;BME280;10713;51.912;4.494;2022-12-20T13:42:56;100950.91;;;11.48;100.00
21111;BME280;10713;51.912;4.494;2022-12-20T13:45:23;100943.75;;;11.50;100.00
21111;BME280;10713;51.912;4.494;2022-12-20T13:47:53;100944.56;;;11.52;100.00
21111;BME280;10713;51.912;4.494;2022-12-20T13:50:27;100943.84;;;11.48;100.00
21111;BME280;10713;51.912;4.494;2022-12-20T13:52:54;100951.06;;;11.65;100.00
21111;BME280;10713;51.912;4.494;2022-12-20T13:55:36;100956.81;;;11.75;100.00
21111;BME280;10713;51.912;4.494;2022-12-20T13:58:23;100951.13;;;11.84;100.00
21111;BME280;10713;51.912;4.494;2022-12-20T14:00:50;100945.97;;;11.81;100.00
21111;BME280;10713;51.912;4.494;2022-12-20T14:03:22;100948.88;;;11.55;100.00
21111;BME280;10713;51.912;4.494;2022-12-20T14:06:01;100951.63;;;11.52;100.00
21111;BME280;10713;51.912;4.494;2022-12-20T14:08:32;100959.25;;;11.59;100.00
21111;BME280;10713;51.912;4.494;2022-12-20T14:11:27;100950.97;;;11.67;100.00
21111;BME280;10713;51.912;4.494;2022-12-20T14:16:20;100952.03;;;12.05;100.00
21111;BME280;10713;51.912;4.494;2022-12-20T14:19:11;100940.59;;;12.05;100.00
21111;BME280;10713;51.912;4.494;2022-12-20T14:21:34;100955.81;;;11.78;100.00